Карточка аэропорта USTR

Внимание!
Информация на этой странице в стадии наполнения.
Если вы не увидели какой-то информации, или заметили неточность - пожалуйста сообщите нам!
Спасибо!
Команда RU-STAFF
Название аэропортаРощино
Название аэропорта (англ.)Roshschino
Превышение378 ft. (115.2 m.)
Координаты57°10.098', 65°19.002'
Высота перехода3000ft
Эшелон переходаQNH⩾1013hPa:FL040; QNH⩾977hPa:FL050; QNH⩽977hPa:FL060
Коды ответчика5101-5137
Зона ОрВДТюмень РПИ (USTV)
Данные METARUSTR 242000Z 15004MPS CAVOK 16/14 Q0994 R21/290060 R12/290060 NOSIG
Проноз погоды (TAF)USTR 241942Z 2421/2521 15003G12MPS 6000 BKN016CB TEMPO 2421/2502 VRB15MPS 0400 TSRAGR FG SQ VV002 FM250200 16006G14MPS 9999 BKN016CB TEMPO 2502/2511 VRB17MPS 1200 TSRAGR SQ VV004 FM251100 23006G14MPS 6000 BKN016CB TEMPO 2511/2518 VRB17MPS 1000 TSRAGR SQ VV003
NOTAMshow/hide NOTAM
AWOS   TABLE

Информация о ВПП

ВПП Длина ВПП (м.) Покрытие Курс ВПП Частота ILS
122704Асфальтобетон121 
302704Асфальтобетон301 
033003Асфальтобетон34108.3
213003Асфальтобетон214110.7

Диспетчерские позиции

Позывной Наименование органа УВД Частота
USTR_GNDТюмень-Руление119.000
USTR_R_APPТюмень-Круг126.100
USTR_TWRТюмень-Старт118.200



Спутниковое изображение